Airfield :
LOGIN :

Register | Disclaimer

   EN    FR    IT 

 










Legend :    VFR   Marginal VFR   IFR   Intensive IFR   Very Intensive IFR
Visi :
Ceiling :
>= 8 km
>= 3000ft
5 to 8 km
1000 to 3000 ft
1500m to 5 km
500 to 1000 ft
800 to 1500m
200 to 500 ft
< 800m
< 200 ft
Symbols :   Thunderstorms  Fog  Heavy snow  Heavy precipitations  Wind > 20 kt
SIGMETs :     Misc.  Thunderstorms  Icing  Turbulence  Mountain Waves  Volcanic Ashes






- Airport Elevation : 335 ft
- IATA code : BEG


LYBE - Belgrade Nikola Tesla

CURRENT METAR :
  • 261400Z 02004KT 5000 BR NSC 12/05 Q1021 NOSIG

EXPIRED METARs :
  • 261330Z 03004KT 350V050 5000 BR NSC 13/04 Q1021 NOSIG
  • 261300Z 01003KT 5000 BR NSC 12/04 Q1021 NOSIG
  • 261230Z 31003KT 5000 BR NSC 12/04 Q1021 NOSIG
  • 261200Z VRB02KT 4000 BR NSC 12/04 Q1021 NOSIG
  • 261130Z 28003KT 250V310 3500 BR NSC 11/04 Q1022 NOSIG

TAF TAF LYBE
Valid from the 26 at 12:00 until the 27 at 12:00 UTC


261100Z 2612/2712 VRB02KT 4000 BR NSC TX11/2613Z TN04/2706Z
BECMG 2622/2624 2000 -RA BKN010 BKN033
TEMPO 2706/2712 BKN005 BKN027



MET'MAP, your aeronautical weather chart ! - Copyright ORBIFLY December 2007 - Disclaimer

ORBIFLY MET'MAP TEAM :

Programming & Development : Alexandra Zaïnal
Concept & original design : Baudouin d'Aumeries
Assistance for programming : Marc-Olivier Méhu
Technical & hardware support : Manuel Goepfert

Contact : metmap@orbifly.com




SOURCES & CREDITS :

   NOAA